Time;durP1;ratioP1;P1;durP2;ratioP2;P2;SDS_P1;SDS_P2;PMS_P1;PMS_P2;Temp;Humidity;BMP_temperature;BMP_pressure;BME280_temperature;BME280_humidity;BME280_pressure;Samples;Min_cycle;Max_cycle;Signal;HPM_P1;HPM_P2
2022/12/24 00:01:43;;;;;;;4.20;2.23;;;11.30;99.90;;;;;;5115593;28;20451;-55
2022/12/24 00:04:15;;;;;;;8.93;2.87;;;11.20;99.90;;;;;;5115750;28;20497;-55
2022/12/24 00:06:42;;;;;;;3.73;2.70;;;11.30;99.90;;;;;;5115417;28;20442;-54
2022/12/24 00:09:09;;;;;;;4.70;2.60;;;11.20;99.90;;;;;;5115716;28;20434;-54
2022/12/24 00:11:37;;;;;;;6.83;2.90;;;11.30;99.90;;;;;;5115504;28;20439;-54
2022/12/24 00:14:04;;;;;;;3.17;2.13;;;11.30;99.90;;;;;;5115388;28;20446;-54
2022/12/24 00:16:31;;;;;;;5.00;2.30;;;11.30;99.90;;;;;;5115597;28;20446;-54
2022/12/24 00:18:58;;;;;;;6.30;2.20;;;11.30;99.90;;;;;;5115795;28;20906;-54
2022/12/24 00:21:26;;;;;;;4.60;2.67;;;11.30;99.90;;;;;;5115309;28;20482;-54
2022/12/24 00:23:54;;;;;;;4.10;2.63;;;11.30;99.90;;;;;;5115117;28;20794;-55
2022/12/24 00:26:21;;;;;;;5.83;2.63;;;11.30;99.90;;;;;;5115042;28;20451;-54
2022/12/24 00:28:48;;;;;;;4.50;2.47;;;11.40;99.90;;;;;;5115322;28;20439;-54
2022/12/24 00:31:17;;;;;;;5.57;2.50;;;11.40;99.90;;;;;;5115128;28;20469;-54
2022/12/24 00:33:46;;;;;;;7.60;2.50;;;11.30;99.90;;;;;;5115252;28;20541;-54
2022/12/24 00:36:14;;;;;;;4.50;2.30;;;11.40;99.90;;;;;;5114845;28;20545;-55
2022/12/24 00:38:43;;;;;;;2.90;2.10;;;11.40;99.90;;;;;;5115315;28;20921;-54
2022/12/24 00:41:23;;;;;;;4.20;2.70;;;11.40;99.90;;;;;;5114090;28;20884;-54
2022/12/24 00:43:51;;;;;;;4.43;2.30;;;11.30;99.90;;;;;;5114532;28;20427;-54
2022/12/24 00:46:18;;;;;;;2.60;2.23;;;11.40;99.90;;;;;;5115087;28;20443;-55
2022/12/24 00:48:45;;;;;;;4.97;2.30;;;11.40;99.90;;;;;;5114705;28;20450;-54
2022/12/24 00:51:12;;;;;;;6.47;3.90;;;11.30;99.90;;;;;;5114654;28;20501;-54
2022/12/24 00:53:39;;;;;;;4.00;2.97;;;11.20;99.90;;;;;;5114600;28;20442;-54
2022/12/24 00:56:09;;;;;;;7.53;2.63;;;11.20;99.90;;;;;;5114518;28;20937;-55
2022/12/24 00:58:36;;;;;;;5.50;2.63;;;11.00;99.90;;;;;;5114493;28;20453;-54
2022/12/24 01:01:03;;;;;;;4.90;2.10;;;10.90;99.90;;;;;;5114617;28;20931;-54
2022/12/24 01:03:37;;;;;;;4.60;3.53;;;10.80;99.90;;;;;;5114588;28;20640;-54
2022/12/24 01:06:05;;;;;;;6.80;2.73;;;10.80;99.90;;;;;;5114714;28;20430;-54
2022/12/24 01:08:32;;;;;;;7.67;2.50;;;10.70;99.90;;;;;;5114254;28;20443;-54
2022/12/24 01:11:00;;;;;;;7.23;3.17;;;10.60;99.90;;;;;;5114453;28;20467;-54
2022/12/24 01:13:28;;;;;;;4.60;2.60;;;10.60;99.90;;;;;;5114480;28;20456;-54
2022/12/24 01:15:56;;;;;;;6.00;2.20;;;10.60;99.90;;;;;;5114489;28;20461;-54
2022/12/24 01:18:24;;;;;;;6.73;3.23;;;10.60;99.90;;;;;;5114465;28;20442;-55
2022/12/24 01:20:57;;;;;;;4.70;2.37;;;10.50;99.90;;;;;;5114051;28;20471;-54
2022/12/24 01:23:24;;;;;;;5.67;2.70;;;10.50;99.90;;;;;;5114493;28;20433;-54
2022/12/24 01:25:54;;;;;;;6.03;3.10;;;10.50;99.90;;;;;;5114290;28;20543;-54
2022/12/24 01:28:21;;;;;;;3.63;2.30;;;10.50;99.90;;;;;;5114352;28;20449;-54
2022/12/24 01:30:50;;;;;;;6.03;3.40;;;10.50;99.90;;;;;;5113886;28;20545;-54
2022/12/24 01:33:17;;;;;;;3.70;2.47;;;10.50;99.90;;;;;;5113905;28;20533;-54
2022/12/24 01:35:44;;;;;;;4.27;2.20;;;10.50;99.90;;;;;;5114229;28;20465;-54
2022/12/24 01:38:12;;;;;;;5.90;2.93;;;10.50;99.90;;;;;;5114233;28;20461;-54
2022/12/24 01:43:27;;;;;;;3.30;2.40;;;10.70;99.90;;;;;;5113932;28;20410;-54
2022/12/24 01:45:57;;;;;;;4.73;2.77;;;10.70;99.90;;;;;;5113818;28;20451;-54
2022/12/24 01:48:34;;;;;;;9.77;3.40;;;10.80;99.90;;;;;;5114048;28;20872;-54
2022/12/24 01:51:04;;;;;;;7.43;2.30;;;10.70;99.90;;;;;;5113855;28;20538;-54
2022/12/24 01:53:34;;;;;;;5.83;3.00;;;10.80;99.90;;;;;;5117416;28;20926;-54
2022/12/24 01:56:03;;;;;;;8.70;2.80;;;10.70;99.90;;;;;;5120814;28;20462;-54
2022/12/24 01:58:32;;;;;;;12.93;3.50;;;10.70;99.90;;;;;;5120535;28;20534;-54
2022/12/24 02:01:00;;;;;;;6.00;2.80;;;10.60;99.90;;;;;;5120405;28;20491;-55
2022/12/24 02:03:28;;;;;;;6.43;3.03;;;10.50;99.90;;;;;;5120398;28;20510;-54
2022/12/24 02:05:57;;;;;;;5.30;2.67;;;10.50;99.90;;;;;;5120557;28;20943;-54
2022/12/24 02:08:38;;;;;;;5.30;3.10;;;10.50;99.90;;;;;;5120725;28;20462;-54
2022/12/24 02:11:13;;;;;;;5.93;2.53;;;10.50;99.90;;;;;;5120631;28;20462;-55
2022/12/24 02:13:41;;;;;;;4.80;2.87;;;10.50;99.90;;;;;;5120427;28;20430;-54
2022/12/24 02:16:20;;;;;;;8.60;3.07;;;10.50;99.90;;;;;;5120326;28;20804;-54
2022/12/24 02:18:56;;;;;;;8.60;3.10;;;10.50;99.90;;;;;;5120745;28;20434;-54
2022/12/24 02:21:52;;;;;;;5.47;3.13;;;10.50;99.90;;;;;;5120553;28;20856;-54
2022/12/24 02:24:47;;;;;;;7.97;2.50;;;10.50;99.90;;;;;;5120640;28;20837;-55
2022/12/24 02:27:34;;;;;;;6.73;3.10;;;10.40;99.90;;;;;;5120274;28;20431;-54
2022/12/24 02:30:12;;;;;;;4.77;3.07;;;10.40;99.90;;;;;;5120168;27;21019;-54
2022/12/24 02:32:57;;;;;;;5.43;2.40;;;10.40;99.90;;;;;;5120575;28;20430;-54
2022/12/24 02:35:33;;;;;;;6.07;3.17;;;10.40;99.90;;;;;;5120465;28;20431;-54
2022/12/24 02:38:07;;;;;;;5.87;2.83;;;10.50;99.90;;;;;;5120370;28;20472;-54
2022/12/24 02:40:38;;;;;;;9.47;2.43;;;10.40;99.90;;;;;;5119970;28;20482;-54
2022/12/24 02:43:10;;;;;;;8.83;3.07;;;10.40;99.90;;;;;;5120277;28;20430;-54
2022/12/24 02:45:42;;;;;;;5.70;3.20;;;10.30;99.90;;;;;;5120404;28;20427;-54
2022/12/24 02:48:12;;;;;;;7.50;3.03;;;10.30;99.90;;;;;;5120165;28;20435;-54
2022/12/24 02:50:39;;;;;;;8.20;2.87;;;10.30;99.90;;;;;;5120319;27;20462;-54
2022/12/24 02:53:09;;;;;;;12.10;3.30;;;10.20;99.90;;;;;;5120379;28;20442;-55
2022/12/24 02:55:45;;;;;;;7.47;3.30;;;10.10;99.90;;;;;;5120779;28;20529;-54
2022/12/24 02:58:29;;;;;;;7.50;2.27;;;10.10;99.90;;;;;;5120359;28;20812;-54
2022/12/24 03:01:16;;;;;;;6.00;2.77;;;10.00;99.90;;;;;;5119834;28;20481;-54
2022/12/24 03:03:55;;;;;;;11.40;3.23;;;10.00;99.90;;;;;;5120060;28;20453;-54
2022/12/24 03:06:31;;;;;;;3.77;2.60;;;10.00;99.90;;;;;;5116066;28;20441;-54
2022/12/24 03:09:04;;;;;;;6.17;2.87;;;9.90;99.90;;;;;;5117273;28;20454;-54
2022/12/24 03:11:31;;;;;;;8.73;3.13;;;9.90;99.90;;;;;;5116640;28;20429;-54
2022/12/24 03:13:59;;;;;;;9.83;3.60;;;9.90;99.90;;;;;;5116936;28;20442;-54
2022/12/24 03:16:28;;;;;;;4.73;2.90;;;9.90;99.90;;;;;;5116829;28;20450;-54
2022/12/24 03:18:56;;;;;;;8.80;3.03;;;9.90;99.90;;;;;;5116788;28;20442;-54
2022/12/24 03:21:28;;;;;;;5.50;3.37;;;9.90;99.90;;;;;;5116202;28;20967;-54
2022/12/24 03:23:56;;;;;;;6.10;2.90;;;9.90;99.90;;;;;;5116414;28;20427;-54
2022/12/24 03:26:25;;;;;;;9.37;3.13;;;9.80;99.90;;;;;;5116632;28;20870;-54
2022/12/24 03:28:52;;;;;;;6.90;2.70;;;9.80;99.90;;;;;;5116330;28;20897;-54
2022/12/24 03:31:19;;;;;;;6.20;3.47;;;9.80;99.90;;;;;;5116411;28;20814;-55
2022/12/24 03:33:48;;;;;;;6.17;3.57;;;9.80;99.90;;;;;;5116462;28;20839;-55
2022/12/24 03:36:15;;;;;;;4.20;2.80;;;9.80;99.90;;;;;;5116082;28;20445;-54
2022/12/24 03:38:43;;;;;;;9.53;3.33;;;9.80;99.90;;;;;;5116526;28;20451;-55
2022/12/24 03:41:10;;;;;;;9.33;3.97;;;9.90;99.90;;;;;;5115802;28;20578;-54
2022/12/24 03:43:37;;;;;;;7.60;3.73;;;9.90;99.90;;;;;;5116274;28;20446;-55
2022/12/24 03:46:06;;;;;;;6.27;2.77;;;9.90;99.90;;;;;;5115967;28;20947;-54
2022/12/24 03:48:35;;;;;;;3.60;2.83;;;9.90;99.90;;;;;;5115832;28;20537;-55
2022/12/24 03:51:04;;;;;;;8.63;3.27;;;10.00;99.90;;;;;;5115826;28;20999;-55
2022/12/24 03:53:31;;;;;;;6.53;3.67;;;10.00;99.90;;;;;;5116077;28;20446;-55
2022/12/24 03:55:58;;;;;;;4.90;2.43;;;10.10;99.90;;;;;;5116148;28;20453;-54
2022/12/24 03:58:25;;;;;;;9.40;4.40;;;10.10;99.90;;;;;;5115971;28;20544;-55
2022/12/24 04:00:53;;;;;;;8.93;3.60;;;10.00;99.90;;;;;;5115868;28;20493;-55
2022/12/24 04:03:20;;;;;;;5.07;3.77;;;9.90;99.90;;;;;;5115533;28;20450;-54
2022/12/24 04:05:47;;;;;;;8.23;4.37;;;10.00;99.90;;;;;;5115815;28;20831;-54
2022/12/24 04:08:16;;;;;;;9.07;4.03;;;10.00;99.90;;;;;;5115902;28;20454;-54
2022/12/24 04:10:43;;;;;;;8.73;3.30;;;10.00;99.90;;;;;;5115770;28;20462;-54
2022/12/24 04:13:10;;;;;;;8.67;3.70;;;9.90;99.90;;;;;;5115409;28;21039;-54
2022/12/24 04:15:37;;;;;;;11.40;3.27;;;9.90;99.90;;;;;;5115213;28;21031;-54
2022/12/24 04:18:05;;;;;;;7.77;3.63;;;9.90;99.90;;;;;;5115607;28;20525;-54
2022/12/24 04:20:32;;;;;;;4.83;2.73;;;10.00;99.90;;;;;;5115291;28;20554;-54
2022/12/24 04:22:59;;;;;;;6.87;3.67;;;10.00;99.90;;;;;;5115100;28;20493;-54
2022/12/24 04:25:27;;;;;;;13.50;3.27;;;10.00;99.90;;;;;;5115212;28;20967;-54
2022/12/24 04:27:54;;;;;;;8.60;3.20;;;10.00;99.90;;;;;;5115047;28;20533;-54
2022/12/24 04:30:21;;;;;;;8.63;2.90;;;10.00;99.90;;;;;;5115073;28;20478;-54
2022/12/24 04:32:48;;;;;;;11.70;3.70;;;10.10;99.90;;;;;;5115008;28;20444;-54
2022/12/24 04:35:16;;;;;;;7.13;2.73;;;10.10;99.90;;;;;;5114967;28;20510;-54
2022/12/24 04:37:43;;;;;;;10.80;3.63;;;10.10;99.90;;;;;;5115042;28;20458;-54
2022/12/24 04:40:11;;;;;;;8.63;3.33;;;10.20;99.90;;;;;;5115195;28;20513;-54
2022/12/24 04:42:39;;;;;;;7.80;3.43;;;10.10;99.90;;;;;;5114664;28;20487;-54
2022/12/24 04:45:07;;;;;;;5.30;4.33;;;10.00;99.90;;;;;;5115150;28;20447;-54
2022/12/24 04:47:35;;;;;;;15.20;4.10;;;10.00;99.90;;;;;;5115206;28;20521;-54
2022/12/24 04:50:02;;;;;;;12.00;3.70;;;10.00;99.90;;;;;;5115006;28;20508;-54
2022/12/24 04:52:29;;;;;;;6.53;2.90;;;10.00;99.90;;;;;;5114681;28;20443;-54
2022/12/24 04:54:56;;;;;;;8.27;2.80;;;9.90;99.90;;;;;;5114566;28;20458;-54
2022/12/24 04:57:23;;;;;;;6.67;3.63;;;9.90;99.90;;;;;;5114583;28;20792;-54
2022/12/24 04:59:51;;;;;;;12.37;3.73;;;9.90;99.90;;;;;;5114723;28;20472;-54
2022/12/24 05:02:19;;;;;;;7.40;4.30;;;9.90;99.90;;;;;;5114742;28;20482;-54
2022/12/24 05:04:46;;;;;;;10.10;3.13;;;9.80;99.90;;;;;;5114609;28;20453;-54
2022/12/24 05:07:13;;;;;;;8.30;3.23;;;9.80;99.90;;;;;;5114531;28;21003;-54
2022/12/24 05:09:40;;;;;;;5.83;3.00;;;9.80;99.90;;;;;;5114274;28;20972;-54
2022/12/24 05:12:07;;;;;;;9.50;2.57;;;9.80;99.90;;;;;;5114672;28;20529;-54
2022/12/24 05:14:35;;;;;;;7.00;2.90;;;9.80;99.90;;;;;;5114321;28;20784;-54
2022/12/24 05:17:03;;;;;;;9.23;3.67;;;9.90;99.90;;;;;;5114573;28;20447;-54
2022/12/24 05:19:30;;;;;;;5.57;3.57;;;9.90;99.90;;;;;;5114414;28;20468;-54
2022/12/24 05:27:27;;;;;;;8.90;3.33;;;10.10;99.90;;;;;;5113825;28;20817;-54
2022/12/24 05:29:54;;;;;;;7.57;2.90;;;10.10;99.90;;;;;;5114164;28;20463;-54
2022/12/24 05:32:23;;;;;;;6.30;2.83;;;10.10;99.90;;;;;;5114303;28;20529;-54
2022/12/24 05:34:50;;;;;;;11.13;3.30;;;10.10;99.90;;;;;;5113877;28;20929;-54
2022/12/24 05:37:17;;;;;;;9.33;3.30;;;10.10;99.90;;;;;;5113954;28;20456;-54
2022/12/24 05:39:44;;;;;;;12.47;3.10;;;10.10;99.90;;;;;;5114175;28;20472;-54
2022/12/24 05:42:11;;;;;;;9.80;2.70;;;10.10;99.90;;;;;;5114001;28;20475;-54
2022/12/24 05:44:38;;;;;;;4.00;2.27;;;10.10;99.90;;;;;;5114199;28;20450;-54
2022/12/24 05:47:05;;;;;;;7.90;2.90;;;10.10;99.90;;;;;;5114108;28;20815;-54
2022/12/24 05:49:34;;;;;;;6.13;2.60;;;10.10;99.90;;;;;;5114070;28;20459;-55
2022/12/24 05:52:01;;;;;;;4.57;2.70;;;10.10;99.90;;;;;;5114067;28;20438;-54
2022/12/24 05:54:28;;;;;;;10.03;3.37;;;10.10;99.90;;;;;;5114060;28;20454;-54
2022/12/24 05:56:55;;;;;;;8.90;2.47;;;10.10;99.90;;;;;;5113656;28;20932;-54
2022/12/24 05:59:22;;;;;;;6.10;3.63;;;10.10;99.90;;;;;;5113609;28;20998;-54
2022/12/24 06:01:49;;;;;;;8.63;3.07;;;10.10;99.90;;;;;;5113628;28;20474;-54
2022/12/24 06:04:16;;;;;;;9.27;3.47;;;10.10;99.90;;;;;;5113556;28;20446;-54
2022/12/24 06:06:45;;;;;;;5.63;2.63;;;10.10;99.90;;;;;;5113534;28;20454;-54
2022/12/24 06:09:12;;;;;;;5.87;3.33;;;10.00;99.90;;;;;;5113498;28;20431;-54
2022/12/24 06:11:39;;;;;;;8.30;2.87;;;10.00;99.90;;;;;;5113916;28;20449;-54
2022/12/24 06:14:06;;;;;;;6.03;3.53;;;9.90;99.90;;;;;;5113795;28;20446;-54
2022/12/24 06:16:33;;;;;;;4.87;2.80;;;9.90;99.90;;;;;;5113861;28;20449;-54
2022/12/24 06:19:00;;;;;;;14.97;2.87;;;9.90;99.90;;;;;;5113539;28;20442;-54
2022/12/24 06:21:27;;;;;;;9.27;3.27;;;9.90;99.90;;;;;;5113412;28;20447;-54
2022/12/24 06:23:56;;;;;;;3.87;2.50;;;9.90;99.90;;;;;;5113390;28;20937;-54
2022/12/24 06:26:23;;;;;;;10.30;3.73;;;9.90;99.90;;;;;;5113561;28;20801;-55
2022/12/24 06:28:52;;;;;;;6.67;2.83;;;9.80;99.90;;;;;;5113709;28;20482;-54
2022/12/24 06:31:21;;;;;;;7.90;3.00;;;9.70;99.90;;;;;;5113422;28;20470;-54
2022/12/24 06:33:48;;;;;;;6.10;3.30;;;9.50;99.90;;;;;;5113298;28;20940;-54
2022/12/24 06:36:18;;;;;;;7.80;3.30;;;9.50;99.90;;;;;;5113194;28;20537;-54
2022/12/24 06:38:45;;;;;;;7.47;3.30;;;9.50;99.90;;;;;;5113571;28;20549;-54
2022/12/24 06:41:15;;;;;;;7.30;3.60;;;9.40;99.90;;;;;;5115834;28;20485;-54
2022/12/24 06:43:45;;;;;;;9.73;3.07;;;9.40;99.90;;;;;;5117090;28;20488;-54
2022/12/24 06:46:12;;;;;;;11.33;3.47;;;9.30;99.90;;;;;;5117487;28;20411;-54
2022/12/24 06:48:39;;;;;;;10.80;3.33;;;9.30;99.90;;;;;;5117360;28;20449;-54
2022/12/24 06:51:07;;;;;;;8.00;2.90;;;9.30;99.90;;;;;;5116947;28;20972;-54
2022/12/24 06:53:34;;;;;;;5.30;2.90;;;9.20;99.90;;;;;;5116917;28;20442;-55
2022/12/24 06:56:03;;;;;;;5.87;2.80;;;9.20;99.90;;;;;;5116975;28;20446;-54
2022/12/24 06:58:31;;;;;;;9.53;3.73;;;9.20;99.90;;;;;;5117265;28;20453;-55
2022/12/24 07:01:09;;;;;;;5.87;4.30;;;9.30;99.90;;;;;;5117101;28;20566;-54
2022/12/24 07:03:36;;;;;;;11.50;3.13;;;9.30;99.90;;;;;;5117039;28;20466;-54
2022/12/24 07:06:03;;;;;;;10.67;3.40;;;9.30;99.90;;;;;;5116754;28;20449;-54
2022/12/24 07:08:32;;;;;;;9.03;3.53;;;9.20;99.90;;;;;;5117012;28;20450;-54
2022/12/24 07:11:00;;;;;;;6.50;3.13;;;9.20;99.90;;;;;;5116565;28;20968;-54
2022/12/24 07:13:28;;;;;;;9.60;3.17;;;9.20;99.90;;;;;;5116562;28;20512;-54
2022/12/24 07:16:01;;;;;;;4.90;3.77;;;9.20;99.90;;;;;;5116869;28;20461;-54
2022/12/24 07:18:28;;;;;;;8.90;3.00;;;9.20;99.90;;;;;;5116826;28;20510;-54
2022/12/24 07:20:55;;;;;;;4.80;3.27;;;9.20;99.90;;;;;;5116379;28;20470;-54
2022/12/24 07:23:23;;;;;;;7.83;3.70;;;9.20;99.90;;;;;;5116307;28;20561;-54
2022/12/24 07:25:50;;;;;;;6.40;2.40;;;9.20;99.90;;;;;;5116703;28;20465;-54
2022/12/24 07:28:17;;;;;;;6.60;3.40;;;9.20;99.90;;;;;;5116572;28;20453;-54
2022/12/24 07:30:44;;;;;;;10.30;3.73;;;9.20;99.90;;;;;;5116533;28;20501;-55
2022/12/24 07:33:13;;;;;;;14.63;4.00;;;9.20;99.90;;;;;;5116195;28;20478;-54
2022/12/24 07:35:40;;;;;;;5.47;3.90;;;9.30;99.90;;;;;;5116002;28;20452;-54
2022/12/24 07:38:07;;;;;;;8.97;3.50;;;9.30;99.90;;;;;;5116435;28;20454;-54
2022/12/24 07:40:34;;;;;;;4.40;2.60;;;9.30;99.90;;;;;;5115674;28;20987;-54
2022/12/24 07:43:02;;;;;;;6.77;3.73;;;9.30;99.90;;;;;;5115454;28;20489;-54
2022/12/24 07:45:32;;;;;;;10.40;3.17;;;9.30;99.90;;;;;;5116336;28;20422;-54
2022/12/24 07:47:59;;;;;;;6.57;3.20;;;9.30;99.90;;;;;;5116075;28;20442;-54
2022/12/24 07:50:28;;;;;;;7.93;3.50;;;9.30;99.90;;;;;;5115788;28;20459;-55
2022/12/24 07:52:55;;;;;;;6.80;2.83;;;9.20;99.90;;;;;;5115577;28;20465;-54
2022/12/24 07:55:22;;;;;;;7.67;3.40;;;9.20;99.90;;;;;;5115696;28;20446;-54
2022/12/24 07:57:49;;;;;;;5.87;3.27;;;9.20;99.90;;;;;;5115963;28;20446;-55
2022/12/24 08:00:17;;;;;;;6.40;3.70;;;9.20;99.90;;;;;;5115832;28;20463;-54
2022/12/24 08:02:44;;;;;;;7.97;3.60;;;9.30;99.90;;;;;;5116063;28;20492;-54
2022/12/24 08:05:11;;;;;;;8.10;3.37;;;9.30;99.90;;;;;;5115770;28;20457;-54
2022/12/24 08:07:40;;;;;;;11.23;3.33;;;9.30;99.90;;;;;;5115694;28;20461;-54
2022/12/24 08:10:08;;;;;;;5.60;3.30;;;9.30;99.90;;;;;;5115684;28;20466;-54
2022/12/24 08:12:35;;;;;;;5.40;3.17;;;9.30;99.90;;;;;;5115464;28;20956;-55
2022/12/24 08:15:02;;;;;;;14.87;3.83;;;9.30;99.90;;;;;;5115298;28;20442;-54
2022/12/24 08:17:29;;;;;;;6.27;3.43;;;9.40;99.90;;;;;;5115303;28;20443;-54
2022/12/24 08:19:56;;;;;;;9.60;3.93;;;9.30;99.90;;;;;;5115410;28;20465;-54
2022/12/24 08:22:23;;;;;;;12.47;4.23;;;9.40;99.90;;;;;;5115183;28;20474;-55
2022/12/24 08:24:52;;;;;;;11.47;3.40;;;9.40;99.90;;;;;;5115459;28;20450;-54
2022/12/24 08:27:19;;;;;;;5.27;4.60;;;9.30;99.90;;;;;;5115405;28;20431;-54
2022/12/24 08:29:46;;;;;;;9.20;4.27;;;9.30;99.90;;;;;;5115298;28;20467;-55
2022/12/24 08:32:14;;;;;;;7.80;4.80;;;9.30;99.90;;;;;;5115347;28;20442;-54
2022/12/24 08:34:41;;;;;;;9.43;3.80;;;9.30;99.90;;;;;;5115068;28;20477;-55
2022/12/24 08:37:08;;;;;;;12.93;3.97;;;9.40;99.90;;;;;;5115225;28;20541;-54
2022/12/24 08:39:35;;;;;;;8.27;3.63;;;9.50;99.90;;;;;;5114789;28;20501;-54
2022/12/24 08:42:04;;;;;;;12.67;4.40;;;9.40;99.90;;;;;;5114692;28;20478;-55
2022/12/24 08:44:31;;;;;;;8.50;3.70;;;9.50;99.90;;;;;;5115016;28;20442;-54
2022/12/24 08:46:58;;;;;;;8.17;4.43;;;9.60;99.90;;;;;;5114748;28;20450;-55
2022/12/24 08:49:25;;;;;;;5.97;3.00;;;9.60;99.90;;;;;;5114971;28;20458;-55
2022/12/24 08:51:52;;;;;;;6.73;3.87;;;9.60;99.90;;;;;;5114756;28;20967;-54
2022/12/24 08:54:21;;;;;;;7.90;4.03;;;9.60;99.90;;;;;;5114907;28;20545;-54
2022/12/24 08:56:48;;;;;;;10.03;4.50;;;9.60;99.90;;;;;;5114899;28;20455;-54
2022/12/24 08:59:17;;;;;;;8.33;3.90;;;9.60;99.90;;;;;;5114411;28;20450;-54
2022/12/24 09:01:44;;;;;;;6.77;3.40;;;9.60;99.90;;;;;;5114396;28;20450;-54
2022/12/24 09:04:11;;;;;;;10.23;4.33;;;9.70;99.90;;;;;;5113517;28;20489;-54
2022/12/24 09:06:38;;;;;;;9.33;4.17;;;9.70;99.90;;;;;;5114364;28;20446;-54
2022/12/24 09:09:08;;;;;;;15.70;4.90;;;9.70;99.90;;;;;;5114282;28;20427;-54
2022/12/24 09:11:35;;;;;;;6.43;3.80;;;9.80;99.90;;;;;;5114179;28;20537;-54
2022/12/24 09:14:03;;;;;;;8.70;3.77;;;9.80;99.90;;;;;;5114187;28;20929;-54
2022/12/24 09:16:31;;;;;;;9.47;3.77;;;9.90;99.90;;;;;;5114395;28;20455;-54
2022/12/24 09:18:59;;;;;;;13.23;3.90;;;10.00;99.90;;;;;;5114495;28;20457;-54
2022/12/24 09:21:26;;;;;;;10.33;4.20;;;10.10;99.90;;;;;;5114349;28;20449;-54
2022/12/24 09:23:53;;;;;;;8.00;3.40;;;10.20;99.90;;;;;;5114093;28;20474;-54
2022/12/24 09:26:23;;;;;;;6.37;3.00;;;10.30;99.90;;;;;;5113981;28;20442;-54
2022/12/24 09:28:51;;;;;;;4.30;2.90;;;10.30;99.90;;;;;;5114140;28;20430;-54
2022/12/24 09:31:18;;;;;;;7.43;2.90;;;10.40;99.90;;;;;;5114129;28;20824;-54
2022/12/24 09:33:49;;;;;;;9.53;5.33;;;10.50;99.90;;;;;;5114236;28;20450;-54
2022/12/24 09:36:16;;;;;;;6.80;3.90;;;10.60;99.90;;;;;;5113877;28;20913;-55
2022/12/24 09:38:43;;;;;;;11.20;3.80;;;10.60;99.90;;;;;;5114305;28;20454;-54
2022/12/24 09:41:19;;;;;;;10.73;3.87;;;10.50;99.90;;;;;;5113677;28;20493;-54
2022/12/24 09:43:52;;;;;;;10.67;5.03;;;10.50;99.90;;;;;;5113779;28;20467;-55
2022/12/24 09:46:25;;;;;;;11.63;3.77;;;10.50;99.90;;;;;;5113756;28;20435;-55
2022/12/24 09:48:55;;;;;;;6.37;3.03;;;10.60;99.90;;;;;;5113674;28;20521;-54
2022/12/24 09:51:30;;;;;;;9.50;3.43;;;10.60;99.90;;;;;;5113658;28;21023;-54
2022/12/24 09:54:01;;;;;;;5.43;3.07;;;10.60;99.90;;;;;;5113781;28;20936;-54
2022/12/24 09:56:33;;;;;;;10.00;3.37;;;10.50;99.90;;;;;;5113696;28;20953;-55
2022/12/24 09:59:02;;;;;;;11.10;4.30;;;10.60;99.90;;;;;;5113940;28;20426;-54
2022/12/24 10:01:30;;;;;;;14.80;3.80;;;10.70;99.90;;;;;;5113970;28;20806;-55
2022/12/24 10:04:02;;;;;;;16.00;3.77;;;10.80;99.90;;;;;;5113813;28;20485;-54
2022/12/24 10:06:38;;;;;;;5.93;3.70;;;10.90;99.90;;;;;;5113588;28;20890;-55
2022/12/24 10:09:12;;;;;;;12.60;3.80;;;11.10;99.90;;;;;;5113509;28;20486;-54
2022/12/24 10:11:54;;;;;;;8.33;3.93;;;11.20;99.90;;;;;;5113566;28;20919;-54
2022/12/24 10:14:37;;;;;;;6.43;3.33;;;11.20;99.90;;;;;;5115123;28;20779;-55
2022/12/24 10:17:23;;;;;;;7.17;3.00;;;11.20;99.90;;;;;;5118290;28;20475;-54
2022/12/24 10:20:00;;;;;;;12.67;3.70;;;11.30;99.90;;;;;;5117530;28;20576;-54
2022/12/24 10:22:36;;;;;;;9.80;3.00;;;11.40;99.90;;;;;;5117559;28;20963;-54
2022/12/24 10:25:15;;;;;;;9.73;4.50;;;11.50;99.90;;;;;;5117583;28;20425;-54
2022/12/24 10:27:42;;;;;;;9.17;4.00;;;11.70;99.90;;;;;;5117479;28;20422;-55
2022/12/24 10:30:15;;;;;;;11.27;3.73;;;11.80;99.90;;;;;;5117320;28;20470;-54
2022/12/24 10:32:42;;;;;;;6.03;3.67;;;11.80;99.90;;;;;;5117581;28;20430;-55
2022/12/24 10:35:20;;;;;;;7.83;3.30;;;11.80;99.90;;;;;;5117508;28;20446;-54
2022/12/24 10:37:49;;;;;;;11.90;3.57;;;11.80;99.90;;;;;;5117544;28;20461;-54
2022/12/24 10:40:27;;;;;;;7.00;3.90;;;11.80;99.90;;;;;;5117234;28;21039;-54
2022/12/24 10:42:54;;;;;;;9.93;3.70;;;11.80;99.90;;;;;;5117010;28;20474;-54
2022/12/24 10:45:23;;;;;;;6.10;3.43;;;11.90;99.90;;;;;;5117506;28;20449;-54
2022/12/24 10:47:55;;;;;;;10.83;3.90;;;12.00;99.90;;;;;;5117433;28;20920;-55
2022/12/24 10:50:32;;;;;;;10.33;4.03;;;12.10;99.90;;;;;;5117290;28;20465;-54
2022/12/24 10:53:07;;;;;;;10.03;3.40;;;12.20;99.90;;;;;;5117392;28;20465;-54
2022/12/24 10:55:34;;;;;;;9.63;4.23;;;12.20;99.90;;;;;;5116970;28;20430;-54
2022/12/24 10:58:03;;;;;;;9.00;3.90;;;12.30;99.90;;;;;;5116930;28;20482;-55
2022/12/24 11:00:32;;;;;;;12.90;4.70;;;12.20;99.90;;;;;;5117112;28;20488;-55
2022/12/24 11:03:23;;;;;;;6.63;3.80;;;12.10;99.90;;;;;;5116977;28;20869;-55
2022/12/24 11:06:05;;;;;;;8.67;4.37;;;12.10;99.90;;;;;;5116559;28;20435;-54
2022/12/24 11:08:33;;;;;;;11.93;3.80;;;12.20;99.90;;;;;;5117150;28;20454;-54
2022/12/24 11:11:04;;;;;;;8.20;3.97;;;12.30;99.90;;;;;;5116897;28;20473;-54
2022/12/24 11:13:33;;;;;;;13.10;3.37;;;12.20;99.90;;;;;;5116889;28;20556;-55
2022/12/24 11:16:06;;;;;;;10.33;4.23;;;12.20;99.90;;;;;;5116598;28;20518;-55
2022/12/24 11:18:37;;;;;;;14.40;3.47;;;12.10;99.90;;;;;;5116929;28;20438;-55
2022/12/24 11:21:06;;;;;;;5.60;3.40;;;12.00;99.90;;;;;;5116338;28;21003;-55
2022/12/24 11:23:34;;;;;;;16.10;3.90;;;11.90;99.90;;;;;;5116314;28;20481;-56
2022/12/24 11:26:01;;;;;;;10.00;3.73;;;11.90;99.90;;;;;;5115651;28;20478;-55
2022/12/24 11:28:31;;;;;;;15.17;3.47;;;11.90;99.90;;;;;;5116297;28;20460;-55
2022/12/24 11:31:02;;;;;;;7.70;4.43;;;11.90;99.90;;;;;;5116711;28;20482;-55
2022/12/24 11:33:31;;;;;;;9.97;3.53;;;11.80;99.90;;;;;;5116561;28;20439;-54
2022/12/24 11:36:02;;;;;;;10.37;4.10;;;11.80;99.90;;;;;;5115983;28;20457;-55
2022/12/24 11:38:33;;;;;;;10.83;3.13;;;11.90;99.90;;;;;;5116460;28;20462;-54
2022/12/24 11:41:06;;;;;;;6.00;3.23;;;11.90;99.90;;;;;;5115903;28;20502;-54
2022/12/24 11:43:46;;;;;;;6.07;4.23;;;12.00;99.90;;;;;;5116182;28;20536;-54
2022/12/24 11:46:22;;;;;;;12.10;2.90;;;12.10;99.90;;;;;;5116557;28;20466;-55
2022/12/24 11:49:05;;;;;;;8.67;3.73;;;12.20;99.90;;;;;;5116190;28;20426;-55
2022/12/24 11:51:32;;;;;;;9.13;3.70;;;12.30;99.90;;;;;;5116234;28;20426;-55
2022/12/24 11:54:08;;;;;;;9.53;3.23;;;12.30;99.90;;;;;;5116005;28;20446;-54
2022/12/24 11:56:40;;;;;;;6.93;4.10;;;12.30;99.90;;;;;;5115792;28;20431;-55
2022/12/24 11:59:17;;;;;;;10.17;3.40;;;12.50;99.90;;;;;;5115949;28;20510;-54
2022/12/24 12:01:52;;;;;;;10.37;3.77;;;12.40;99.90;;;;;;5115688;28;20958;-55
2022/12/24 12:04:22;;;;;;;7.20;3.23;;;12.40;99.90;;;;;;5115585;28;20466;-55
2022/12/24 12:06:57;;;;;;;11.33;4.10;;;12.40;99.90;;;;;;5115644;28;20448;-55
2022/12/24 12:09:30;;;;;;;5.77;3.40;;;12.40;99.90;;;;;;5115698;28;20477;-54
2022/12/24 12:12:02;;;;;;;10.07;3.57;;;12.50;99.90;;;;;;5115790;28;20423;-55
2022/12/24 12:14:36;;;;;;;8.97;3.83;;;12.50;99.90;;;;;;5115237;28;20435;-55
2022/12/24 12:17:12;;;;;;;10.93;3.67;;;12.50;99.90;;;;;;5115387;28;20435;-55
2022/12/24 12:19:43;;;;;;;6.37;3.60;;;12.60;99.90;;;;;;5115203;28;20830;-55
2022/12/24 12:22:23;;;;;;;7.07;3.50;;;12.60;99.90;;;;;;5115272;28;20423;-55
2022/12/24 12:24:55;;;;;;;8.07;3.23;;;12.50;99.90;;;;;;5114786;28;20462;-55
2022/12/24 12:27:31;;;;;;;5.17;3.40;;;12.50;99.90;;;;;;5114927;28;20431;-54
2022/12/24 12:30:02;;;;;;;14.47;4.40;;;12.40;99.90;;;;;;5114851;28;20960;-55
2022/12/24 12:32:41;;;;;;;11.57;3.80;;;12.40;99.90;;;;;;5115193;28;20782;-55
2022/12/24 12:35:21;;;;;;;8.03;4.23;;;12.50;99.90;;;;;;5115106;28;20423;-54
2022/12/24 12:37:55;;;;;;;10.87;3.50;;;12.30;99.90;;;;;;5115011;28;20916;-55
2022/12/24 12:40:32;;;;;;;6.63;3.00;;;12.30;99.90;;;;;;5114725;28;20466;-54
2022/12/24 12:43:10;;;;;;;8.77;3.57;;;12.30;99.90;;;;;;5114358;28;20943;-55
2022/12/24 12:45:45;;;;;;;10.33;4.63;;;12.30;99.90;;;;;;5114651;28;20466;-55
2022/12/24 12:48:28;;;;;;;8.10;3.60;;;12.40;99.90;;;;;;5114757;28;20522;-54
2022/12/24 12:51:03;;;;;;;9.70;4.00;;;12.40;99.90;;;;;;5114662;28;20976;-54
2022/12/24 12:53:42;;;;;;;6.97;3.43;;;12.30;99.90;;;;;;5114431;28;20930;-54
2022/12/24 12:56:22;;;;;;;4.63;3.40;;;12.30;99.90;;;;;;5114665;28;20783;-54
2022/12/24 12:58:53;;;;;;;12.13;3.77;;;12.40;99.90;;;;;;5114517;28;20433;-55
2022/12/24 13:01:23;;;;;;;9.07;3.27;;;12.50;99.90;;;;;;5114336;28;20462;-55
2022/12/24 13:04:22;;;;;;;12.27;4.57;;;12.50;99.90;;;;;;5114413;28;20475;-55
2022/12/24 13:07:21;;;;;;;6.00;3.00;;;12.60;99.90;;;;;;5114252;28;20920;-55
2022/12/24 13:10:16;;;;;;;8.20;3.83;;;12.70;99.90;;;;;;5114258;28;20549;-55
2022/12/24 13:13:04;;;;;;;6.53;3.03;;;12.90;99.90;;;;;;5111041;28;20451;-55